Time;durP1;ratioP1;P1;durP2;ratioP2;P2;SDS_P1;SDS_P2;PMS_P1;PMS_P2;Temp;Humidity;BMP_temperature;BMP_pressure;BME280_temperature;BME280_humidity;BME280_pressure;Samples;Min_cycle;Max_cycle;Signal;HPM_P1;HPM_P2
2022/06/16 00:02:26;;;;;;;0.40;0.40;;;17.30;99.90;;;;;;5032241;28;20218;-67
2022/06/16 00:05:16;;;;;;;0.40;0.40;;;17.20;99.90;;;;;;5036774;28;20198;-71
2022/06/16 00:08:08;;;;;;;0.50;0.50;;;17.20;99.90;;;;;;5034898;28;20745;-68
2022/06/16 00:14:02;;;;;;;0.50;0.50;;;17.20;99.90;;;;;;5035939;28;20325;-69
2022/06/16 00:16:50;;;;;;;0.40;0.40;;;17.10;99.90;;;;;;5036426;28;20715;-68
2022/06/16 00:19:38;;;;;;;0.50;0.50;;;17.10;99.90;;;;;;5035943;28;20213;-70
2022/06/16 00:22:26;;;;;;;0.45;0.45;;;17.00;99.90;;;;;;5035750;28;20229;-68
2022/06/16 00:25:15;;;;;;;0.40;0.40;;;16.90;99.90;;;;;;5035241;28;20205;-68
2022/06/16 00:28:04;;;;;;;0.40;0.40;;;16.90;99.90;;;;;;5034998;28;20220;-71
2022/06/16 00:31:00;;;;;;;0.50;0.50;;;16.80;99.90;;;;;;5034629;28;20666;-71
2022/06/16 00:33:49;;;;;;;0.50;0.50;;;16.80;99.90;;;;;;5035351;28;20218;-67
2022/06/16 00:36:38;;;;;;;0.50;0.50;;;16.70;99.90;;;;;;5034910;28;20198;-68
2022/06/16 00:39:26;;;;;;;0.50;0.50;;;16.70;99.90;;;;;;5034219;28;20710;-68
2022/06/16 00:42:19;;;;;;;0.40;0.40;;;16.60;99.90;;;;;;5034215;28;20221;-69
2022/06/16 00:45:40;;;;;;;0.40;0.40;;;16.60;99.90;;;;;;5034614;28;20213;-71
2022/06/16 00:48:32;;;;;;;0.40;0.40;;;16.60;99.90;;;;;;5034690;28;20197;-68
2022/06/16 00:51:24;;;;;;;0.50;0.50;;;16.50;99.90;;;;;;5034429;28;20198;-67
2022/06/16 00:54:19;;;;;;;0.50;0.50;;;16.50;99.90;;;;;;5034192;28;20218;-68
2022/06/16 00:57:13;;;;;;;0.50;0.50;;;16.40;99.90;;;;;;5034879;28;20216;-68
2022/06/16 01:00:09;;;;;;;0.50;0.50;;;16.30;99.90;;;;;;5034499;28;20202;-68
2022/06/16 01:02:57;;;;;;;0.50;0.50;;;16.40;99.90;;;;;;5034284;28;20221;-68
2022/06/16 01:05:44;;;;;;;0.40;0.40;;;16.30;99.90;;;;;;5054449;28;20567;-69
2022/06/16 01:08:33;;;;;;;0.50;0.50;;;16.20;99.90;;;;;;5054555;28;20201;-70
2022/06/16 01:15:01;;;;;;;0.50;0.50;;;16.20;99.90;;;;;;5053232;28;20303;-69
2022/06/16 01:17:58;;;;;;;0.40;0.40;;;16.20;99.90;;;;;;5054520;28;20201;-69
2022/06/16 01:20:58;;;;;;;0.50;0.50;;;16.20;99.90;;;;;;5053965;28;20209;-70
2022/06/16 01:24:19;;;;;;;0.40;0.40;;;16.30;99.90;;;;;;5054879;28;20214;-68
2022/06/16 01:27:47;;;;;;;0.50;0.50;;;16.30;99.90;;;;;;5054027;28;20197;-69
2022/06/16 01:30:40;;;;;;;0.50;0.50;;;16.30;99.90;;;;;;5053754;28;20228;-68
2022/06/16 01:33:37;;;;;;;0.70;0.70;;;16.30;99.90;;;;;;5055216;28;20213;-68
2022/06/16 01:36:34;;;;;;;0.43;0.43;;;16.30;99.90;;;;;;5056415;28;20197;-69
2022/06/16 01:39:27;;;;;;;0.50;0.50;;;16.30;99.90;;;;;;5053892;28;20194;-69
2022/06/16 01:42:20;;;;;;;0.50;0.50;;;16.20;99.90;;;;;;5053052;28;20279;-69
2022/06/16 01:45:14;;;;;;;0.50;0.50;;;16.20;99.90;;;;;;5054026;28;20256;-69
2022/06/16 01:48:07;;;;;;;0.50;0.50;;;16.00;99.90;;;;;;5053906;28;20201;-69
2022/06/16 01:50:59;;;;;;;0.50;0.50;;;16.00;99.90;;;;;;5052070;28;20209;-68
2022/06/16 01:53:52;;;;;;;0.50;0.50;;;15.90;99.90;;;;;;5053860;28;20225;-68
2022/06/16 01:56:46;;;;;;;0.50;0.50;;;15.90;99.90;;;;;;5053499;28;20205;-69
2022/06/16 01:59:38;;;;;;;0.50;0.50;;;15.80;99.90;;;;;;5053753;28;20205;-68
2022/06/16 02:02:29;;;;;;;0.50;0.50;;;15.70;99.90;;;;;;5054055;28;20216;-68
2022/06/16 02:05:24;;;;;;;0.50;0.50;;;15.70;99.90;;;;;;5053216;28;20201;-68
2022/06/16 02:08:15;;;;;;;0.50;0.50;;;15.70;99.90;;;;;;5053888;28;20197;-68
2022/06/16 02:11:10;;;;;;;0.50;0.50;;;15.70;99.90;;;;;;5052794;28;20205;-70
2022/06/16 02:14:03;;;;;;;0.45;0.45;;;15.70;99.90;;;;;;5053300;28;20271;-70
2022/06/16 02:16:53;;;;;;;0.50;0.50;;;15.80;99.90;;;;;;5052806;28;20220;-69
2022/06/16 02:19:41;;;;;;;0.50;0.50;;;15.80;99.90;;;;;;5053493;28;20208;-68
2022/06/16 02:22:31;;;;;;;0.50;0.50;;;15.80;99.90;;;;;;5052245;28;20217;-70
2022/06/16 02:25:19;;;;;;;0.40;0.40;;;15.80;99.90;;;;;;5052844;28;20198;-68
2022/06/16 02:28:07;;;;;;;0.40;0.40;;;15.80;99.90;;;;;;5052263;28;20200;-69
2022/06/16 02:31:22;;;;;;;0.50;0.50;;;15.80;99.90;;;;;;5052452;28;20209;-71
2022/06/16 02:34:22;;;;;;;0.50;0.50;;;15.80;99.90;;;;;;5053063;28;20709;-69
2022/06/16 02:37:37;;;;;;;0.50;0.50;;;15.80;99.90;;;;;;5052960;28;20205;-68
2022/06/16 02:40:36;;;;;;;0.50;0.50;;;15.80;99.90;;;;;;5052366;28;20205;-69
2022/06/16 02:43:45;;;;;;;0.40;0.40;;;15.70;99.90;;;;;;5052949;28;20248;-68
2022/06/16 02:46:46;;;;;;;1.63;1.63;;;15.70;99.90;;;;;;5051742;28;20220;-69
2022/06/16 02:49:41;;;;;;;0.40;0.40;;;15.60;99.90;;;;;;5052887;28;20673;-69
2022/06/16 02:52:38;;;;;;;0.50;0.50;;;15.50;99.90;;;;;;5051705;28;20197;-68
2022/06/16 02:55:31;;;;;;;0.50;0.50;;;15.50;99.90;;;;;;5052500;28;20206;-70
2022/06/16 02:58:21;;;;;;;0.50;0.50;;;15.50;99.90;;;;;;5053162;28;20217;-68
2022/06/16 03:01:11;;;;;;;0.50;0.50;;;15.50;99.90;;;;;;5051936;28;20201;-68
2022/06/16 03:04:05;;;;;;;0.50;0.50;;;15.50;99.90;;;;;;5052589;28;20225;-69
2022/06/16 03:06:55;;;;;;;0.50;0.50;;;15.60;99.90;;;;;;5052903;28;20228;-69
2022/06/16 03:09:45;;;;;;;0.50;0.50;;;15.60;99.90;;;;;;5052724;28;20201;-69
2022/06/16 03:12:33;;;;;;;0.50;0.50;;;15.60;99.90;;;;;;5051700;28;20204;-68
2022/06/16 03:15:21;;;;;;;0.50;0.50;;;15.60;99.90;;;;;;5052121;28;20209;-69
2022/06/16 03:18:09;;;;;;;0.50;0.50;;;15.60;99.90;;;;;;5052731;28;20206;-68
2022/06/16 03:20:58;;;;;;;0.40;0.40;;;15.70;99.90;;;;;;5051915;28;20193;-70
2022/06/16 03:23:46;;;;;;;0.40;0.40;;;15.80;99.90;;;;;;5052243;28;20585;-70
2022/06/16 03:26:35;;;;;;;0.40;0.40;;;15.80;99.90;;;;;;5052581;28;20197;-69
2022/06/16 03:29:23;;;;;;;0.50;0.50;;;15.90;99.90;;;;;;5052834;28;20250;-68
2022/06/16 03:32:11;;;;;;;0.50;0.50;;;15.90;99.90;;;;;;5055172;28;20201;-69
2022/06/16 03:35:00;;;;;;;0.50;0.50;;;15.90;99.90;;;;;;5052108;28;20217;-69
2022/06/16 03:37:49;;;;;;;0.40;0.40;;;15.90;99.90;;;;;;5053427;28;20559;-69
2022/06/16 03:40:37;;;;;;;0.50;0.50;;;16.00;99.90;;;;;;5055713;28;20290;-69
2022/06/16 03:43:27;;;;;;;0.40;0.40;;;16.00;99.90;;;;;;5054821;28;20786;-69
2022/06/16 03:46:16;;;;;;;0.70;0.70;;;16.00;99.90;;;;;;5056069;28;20201;-69
2022/06/16 03:49:06;;;;;;;0.50;0.50;;;16.10;99.90;;;;;;5056185;28;20208;-70
2022/06/16 03:51:54;;;;;;;0.50;0.50;;;16.10;99.90;;;;;;5056350;28;20197;-69
2022/06/16 03:54:42;;;;;;;0.50;0.50;;;16.10;99.90;;;;;;5055868;28;20225;-70
2022/06/16 03:57:30;;;;;;;0.50;0.50;;;16.20;99.90;;;;;;5056712;28;20212;-68
2022/06/16 04:00:21;;;;;;;0.50;0.50;;;16.30;99.90;;;;;;5055597;28;20209;-70
2022/06/16 04:06:17;;;;;;;0.40;0.40;;;16.00;99.90;;;;;;5055091;28;20689;-68
2022/06/16 04:09:06;;;;;;;0.50;0.50;;;15.90;99.90;;;;;;5055868;28;20717;-69
2022/06/16 04:11:54;;;;;;;0.40;0.40;;;15.80;99.90;;;;;;5055887;28;20208;-69
2022/06/16 04:14:42;;;;;;;0.40;0.40;;;15.90;99.90;;;;;;5055209;28;20225;-70
2022/06/16 04:17:31;;;;;;;0.50;0.50;;;15.90;99.90;;;;;;5055791;28;20197;-69
2022/06/16 04:20:20;;;;;;;0.50;0.50;;;15.90;99.90;;;;;;5054867;28;20205;-70
2022/06/16 04:23:10;;;;;;;0.40;0.40;;;15.90;99.90;;;;;;5054592;28;20257;-68
2022/06/16 04:25:58;;;;;;;0.50;0.50;;;16.00;99.90;;;;;;5055293;28;20224;-68
2022/06/16 04:28:47;;;;;;;0.57;0.57;;;16.00;99.90;;;;;;5055132;28;20198;-71
2022/06/16 04:31:35;;;;;;;0.40;0.40;;;16.00;99.90;;;;;;5054611;28;20197;-69
2022/06/16 04:34:25;;;;;;;0.50;0.50;;;16.00;99.90;;;;;;5054586;28;20217;-69
2022/06/16 04:37:13;;;;;;;0.50;0.50;;;16.00;99.90;;;;;;5055083;28;20209;-70
2022/06/16 04:40:01;;;;;;;0.50;0.50;;;15.90;99.90;;;;;;5054368;28;20298;-69
2022/06/16 04:42:49;;;;;;;0.45;0.45;;;16.00;99.90;;;;;;5055508;28;20237;-72
2022/06/16 04:45:38;;;;;;;0.40;0.40;;;16.10;99.90;;;;;;5053698;28;20202;-70
2022/06/16 04:48:26;;;;;;;0.50;0.50;;;16.10;99.90;;;;;;5054552;28;20595;-69
2022/06/16 04:51:17;;;;;;;0.50;0.50;;;16.10;99.90;;;;;;5054091;28;20205;-68
2022/06/16 04:54:05;;;;;;;0.50;0.50;;;16.10;99.90;;;;;;5054426;28;20217;-70
2022/06/16 04:56:53;;;;;;;0.50;0.50;;;16.10;99.90;;;;;;5054274;28;20209;-69
2022/06/16 04:59:42;;;;;;;0.45;0.45;;;16.20;99.90;;;;;;5054502;28;20209;-69
2022/06/16 05:02:30;;;;;;;0.50;0.50;;;16.30;99.90;;;;;;5054915;28;20205;-67
2022/06/16 05:05:19;;;;;;;0.73;0.73;;;16.30;99.90;;;;;;5053987;28;20221;-72
2022/06/16 05:08:09;;;;;;;0.50;0.50;;;16.40;99.90;;;;;;5054468;28;20677;-69
2022/06/16 05:10:57;;;;;;;0.50;0.50;;;16.40;99.90;;;;;;5054403;28;20208;-69
2022/06/16 05:13:45;;;;;;;0.40;0.40;;;16.40;99.90;;;;;;5053978;28;20236;-68
2022/06/16 05:16:33;;;;;;;0.50;0.50;;;16.30;99.90;;;;;;5054687;28;20209;-70
2022/06/16 05:19:23;;;;;;;0.50;0.50;;;16.60;99.90;;;;;;5055087;28;20678;-70
2022/06/16 05:22:11;;;;;;;0.50;0.50;;;16.70;99.90;;;;;;5054452;28;20208;-67
2022/06/16 05:25:01;;;;;;;0.45;0.45;;;16.90;99.90;;;;;;5055079;28;20252;-69
2022/06/16 05:27:49;;;;;;;0.50;0.50;;;17.00;99.90;;;;;;5055160;28;20201;-68
2022/06/16 05:30:38;;;;;;;0.40;0.40;;;17.10;99.90;;;;;;5057134;28;20202;-70
2022/06/16 05:33:26;;;;;;;0.75;0.63;;;17.30;99.90;;;;;;5054653;28;20222;-70
2022/06/16 05:36:16;;;;;;;0.50;0.50;;;17.40;99.90;;;;;;5054217;28;20209;-69
2022/06/16 05:39:04;;;;;;;0.40;0.40;;;17.40;99.90;;;;;;5054251;28;20212;-69
2022/06/16 05:41:54;;;;;;;0.50;0.50;;;17.50;99.90;;;;;;5053558;28;20197;-70
2022/06/16 05:44:42;;;;;;;0.50;0.50;;;17.70;99.90;;;;;;5053678;28;20221;-69
2022/06/16 05:47:30;;;;;;;0.70;0.70;;;17.70;99.90;;;;;;5054133;28;20247;-69
2022/06/16 05:50:19;;;;;;;0.40;0.40;;;17.80;99.90;;;;;;5058247;28;20201;-70
2022/06/16 05:53:07;;;;;;;0.40;0.40;;;17.70;99.90;;;;;;5053716;28;20222;-69
2022/06/16 05:55:55;;;;;;;0.40;0.40;;;17.80;99.90;;;;;;5051976;28;20255;-71
2022/06/16 05:58:46;;;;;;;0.50;0.50;;;17.90;99.90;;;;;;5053218;28;20212;-71
2022/06/16 06:01:34;;;;;;;0.40;0.40;;;18.00;99.90;;;;;;5049400;28;20238;-69
2022/06/16 06:04:22;;;;;;;0.50;0.50;;;18.00;99.90;;;;;;5052185;28;20224;-69
2022/06/16 06:07:15;;;;;;;0.40;0.40;;;18.20;99.90;;;;;;5051992;28;20197;-69
2022/06/16 06:16:29;;;;;;;0.50;0.50;;;18.70;99.90;;;;;;5051590;28;20658;-69
2022/06/16 06:19:26;;;;;;;0.63;0.63;;;18.90;99.90;;;;;;5052195;28;20674;-72
2022/06/16 06:22:19;;;;;;;1.02;0.88;;;19.10;99.90;;;;;;5051793;28;20206;-71
2022/06/16 06:25:08;;;;;;;0.40;0.40;;;18.90;99.90;;;;;;5050775;28;20209;-70
2022/06/16 06:27:56;;;;;;;0.40;0.40;;;18.80;99.90;;;;;;5051040;28;20197;-72
2022/06/16 06:30:44;;;;;;;3.13;2.88;;;18.80;99.90;;;;;;5051263;28;20197;-69
2022/06/16 06:33:33;;;;;;;0.40;0.40;;;18.90;99.90;;;;;;5051861;28;20717;-70
2022/06/16 06:36:22;;;;;;;0.40;0.40;;;18.90;99.90;;;;;;5051512;28;20200;-70
2022/06/16 06:39:12;;;;;;;0.47;0.47;;;18.90;99.90;;;;;;5051864;28;20237;-69
2022/06/16 06:42:03;;;;;;;0.50;0.50;;;19.10;99.90;;;;;;5051250;28;20208;-69
2022/06/16 06:44:51;;;;;;;0.47;0.47;;;19.50;99.90;;;;;;5050923;28;20220;-70
2022/06/16 06:47:40;;;;;;;0.47;0.47;;;19.90;99.90;;;;;;5051457;28;20205;-70
2022/06/16 06:50:31;;;;;;;0.40;0.40;;;20.30;99.90;;;;;;5051995;28;20201;-69
2022/06/16 06:53:20;;;;;;;0.40;0.40;;;20.70;99.90;;;;;;5052062;28;20580;-68
2022/06/16 06:56:09;;;;;;;0.40;0.40;;;21.00;99.90;;;;;;5052103;28;20546;-70
2022/06/16 06:59:00;;;;;;;0.50;0.50;;;21.00;99.90;;;;;;5051442;28;20198;-69
2022/06/16 07:01:50;;;;;;;0.50;0.50;;;20.90;99.90;;;;;;5052073;28;20689;-70
2022/06/16 07:04:39;;;;;;;0.50;0.50;;;20.90;99.90;;;;;;5052084;28;20217;-69
2022/06/16 07:07:28;;;;;;;0.50;0.50;;;21.00;99.90;;;;;;5051895;28;20251;-69
2022/06/16 07:10:18;;;;;;;0.50;0.50;;;21.20;99.90;;;;;;5052090;28;20740;-70
2022/06/16 07:13:07;;;;;;;0.40;0.40;;;21.40;99.90;;;;;;5054051;28;20240;-67
2022/06/16 07:15:56;;;;;;;2.28;0.90;;;21.60;99.90;;;;;;5055929;28;20193;-69
2022/06/16 07:18:45;;;;;;;0.90;0.90;;;21.50;99.90;;;;;;5056386;28;20201;-69
2022/06/16 07:21:33;;;;;;;0.50;0.50;;;21.20;99.90;;;;;;5051395;28;20569;-68
2022/06/16 07:24:22;;;;;;;1.95;1.85;;;21.00;99.90;;;;;;5047094;28;20232;-69
2022/06/16 07:27:11;;;;;;;0.50;0.50;;;20.90;99.90;;;;;;5061552;28;20201;-68
2022/06/16 07:29:59;;;;;;;0.40;0.40;;;21.00;99.90;;;;;;5066174;28;20590;-71
2022/06/16 07:32:48;;;;;;;0.50;0.50;;;21.30;99.90;;;;;;5075286;28;20204;-70
2022/06/16 07:35:37;;;;;;;0.70;0.70;;;21.50;99.90;;;;;;5074095;28;20707;-70
2022/06/16 07:38:26;;;;;;;0.40;0.40;;;21.50;99.90;;;;;;5074260;28;20200;-68
2022/06/16 07:41:35;;;;;;;0.50;0.50;;;21.50;99.90;;;;;;5058363;28;20682;-70
2022/06/16 07:44:23;;;;;;;0.40;0.40;;;21.40;99.90;;;;;;5055353;28;20243;-68
2022/06/16 07:47:11;;;;;;;0.40;0.40;;;21.40;99.90;;;;;;5057285;28;20703;-69
2022/06/16 07:50:01;;;;;;;0.40;0.40;;;21.40;99.90;;;;;;5064498;28;20197;-68
2022/06/16 07:52:50;;;;;;;0.70;0.70;;;21.30;99.90;;;;;;5060935;28;20201;-69
2022/06/16 07:55:38;;;;;;;0.40;0.40;;;21.30;99.90;;;;;;5074160;28;20197;-70
2022/06/16 07:58:31;;;;;;;0.40;0.40;;;21.30;99.90;;;;;;5073745;28;20205;-70
2022/06/16 08:01:19;;;;;;;0.40;0.40;;;21.30;99.90;;;;;;5044160;28;20200;-70
2022/06/16 08:04:07;;;;;;;0.40;0.40;;;21.40;99.90;;;;;;5055154;28;20262;-69
2022/06/16 08:07:00;;;;;;;0.40;0.40;;;21.30;99.90;;;;;;5051428;28;20354;-69
2022/06/16 08:09:49;;;;;;;0.40;0.40;;;21.30;99.90;;;;;;5051040;28;20209;-70
2022/06/16 08:12:38;;;;;;;0.40;0.40;;;21.40;99.90;;;;;;5053599;28;20205;-69
2022/06/16 08:15:27;;;;;;;0.40;0.40;;;21.40;99.90;;;;;;5050357;28;20692;-71
2022/06/16 08:18:18;;;;;;;0.50;0.50;;;21.50;99.90;;;;;;5050456;28;20748;-68
2022/06/16 08:21:06;;;;;;;0.40;0.40;;;21.50;99.90;;;;;;5053415;28;20269;-70
2022/06/16 08:23:54;;;;;;;0.40;0.40;;;21.50;99.90;;;;;;5048593;28;20229;-70
2022/06/16 08:26:44;;;;;;;0.40;0.40;;;21.60;99.90;;;;;;5054244;28;20232;-67
2022/06/16 08:29:33;;;;;;;0.82;0.82;;;21.70;99.90;;;;;;5055444;28;20255;-68
2022/06/16 08:32:23;;;;;;;0.40;0.40;;;22.00;99.90;;;;;;5051427;28;20541;-69
2022/06/16 08:35:12;;;;;;;0.40;0.40;;;22.10;99.90;;;;;;5054282;28;20201;-69
2022/06/16 08:38:00;;;;;;;0.40;0.40;;;22.20;99.90;;;;;;5055601;28;20201;-69
2022/06/16 08:41:11;;;;;;;0.40;0.40;;;22.10;99.90;;;;;;5053507;28;20393;-69
2022/06/16 08:44:11;;;;;;;1.00;0.90;;;22.10;99.90;;;;;;5054224;28;20218;-68
2022/06/16 08:47:04;;;;;;;0.40;0.40;;;21.90;99.90;;;;;;5038348;28;20677;-68
2022/06/16 08:50:07;;;;;;;1.00;1.00;;;21.70;99.90;;;;;;5056713;28;20575;-68
2022/06/16 08:53:06;;;;;;;0.57;0.57;;;21.90;99.90;;;;;;5055077;28;20235;-68
2022/06/16 08:56:01;;;;;;;0.40;0.40;;;21.90;99.90;;;;;;5033074;28;20198;-69
2022/06/16 08:58:58;;;;;;;0.50;0.50;;;22.30;99.90;;;;;;5052335;28;20224;-69
2022/06/16 09:01:54;;;;;;;0.40;0.40;;;22.80;99.90;;;;;;5053626;28;20666;-68
2022/06/16 09:04:47;;;;;;;1.20;1.20;;;23.20;99.90;;;;;;5047505;28;20225;-68
2022/06/16 09:07:48;;;;;;;0.47;0.47;;;23.80;99.80;;;;;;5072069;28;20249;-67
2022/06/16 09:10:43;;;;;;;1.98;1.88;;;24.20;98.30;;;;;;5054064;28;20201;-67
2022/06/16 09:13:54;;;;;;;0.40;0.40;;;24.20;97.30;;;;;;5057276;28;20221;-69
2022/06/16 09:16:53;;;;;;;0.40;0.40;;;24.30;97.30;;;;;;5054238;28;20383;-67
2022/06/16 09:19:52;;;;;;;0.50;0.50;;;24.20;96.70;;;;;;5056260;28;20228;-69
2022/06/16 09:23:17;;;;;;;0.60;0.60;;;24.00;95.70;;;;;;5061614;28;20263;-68
2022/06/16 09:26:18;;;;;;;0.40;0.40;;;23.50;96.20;;;;;;5059678;28;20240;-68
2022/06/16 09:29:11;;;;;;;0.43;0.43;;;23.10;97.00;;;;;;5053034;28;20201;-68
2022/06/16 09:32:04;;;;;;;0.50;0.50;;;23.00;97.70;;;;;;5053773;28;20335;-69
2022/06/16 09:34:59;;;;;;;0.70;0.70;;;23.30;97.50;;;;;;5051137;28;20340;-67
2022/06/16 09:37:55;;;;;;;2.05;1.00;;;23.40;97.00;;;;;;5049453;28;20205;-69
2022/06/16 09:40:47;;;;;;;0.60;0.60;;;23.40;96.70;;;;;;5053255;28;20209;-69
2022/06/16 09:43:41;;;;;;;0.50;0.50;;;23.40;96.80;;;;;;5050068;28;20236;-70
2022/06/16 09:46:38;;;;;;;0.70;0.70;;;23.30;96.20;;;;;;5046777;28;20232;-70
2022/06/16 09:49:32;;;;;;;0.50;0.50;;;23.10;96.00;;;;;;5056652;28;20197;-69
2022/06/16 09:52:46;;;;;;;0.50;0.50;;;23.00;96.30;;;;;;5059246;28;20284;-71
2022/06/16 09:55:40;;;;;;;1.10;1.05;;;22.90;97.20;;;;;;5068842;28;20280;-69
2022/06/16 09:58:33;;;;;;;0.60;0.60;;;23.00;96.70;;;;;;5072099;28;20197;-69
2022/06/16 10:01:25;;;;;;;0.50;0.50;;;23.20;96.30;;;;;;5070877;28;20201;-68
2022/06/16 10:04:13;;;;;;;0.40;0.40;;;23.30;96.50;;;;;;5068705;28;20220;-68
2022/06/16 10:07:07;;;;;;;0.60;0.60;;;23.60;96.30;;;;;;5061236;28;20217;-67
2022/06/16 10:10:03;;;;;;;0.55;0.55;;;24.00;95.40;;;;;;5059109;28;20197;-67
2022/06/16 10:13:01;;;;;;;0.95;0.77;;;24.30;94.40;;;;;;5058314;28;20194;-70
2022/06/16 10:15:58;;;;;;;0.50;0.50;;;24.30;93.40;;;;;;5055649;28;20202;-68
2022/06/16 10:18:47;;;;;;;0.40;0.40;;;24.20;93.60;;;;;;5057558;28;20197;-69
2022/06/16 10:21:36;;;;;;;0.40;0.40;;;24.30;93.90;;;;;;5059321;28;20262;-69
2022/06/16 10:24:31;;;;;;;0.43;0.43;;;24.50;92.70;;;;;;5055843;28;20224;-68
2022/06/16 10:27:20;;;;;;;0.40;0.40;;;25.00;92.50;;;;;;5066112;28;20262;-69
2022/06/16 10:30:20;;;;;;;0.70;0.70;;;25.50;91.80;;;;;;5061264;28;20198;-67
2022/06/16 10:33:15;;;;;;;0.60;0.60;;;25.80;90.40;;;;;;5033566;28;20228;-68
2022/06/16 10:36:08;;;;;;;0.40;0.40;;;25.60;89.40;;;;;;5050379;28;20202;-69
2022/06/16 10:39:09;;;;;;;0.40;0.40;;;25.40;90.10;;;;;;5047645;28;20204;-67
2022/06/16 10:42:05;;;;;;;0.40;0.40;;;25.50;90.20;;;;;;5049567;28;20560;-67
2022/06/16 10:44:57;;;;;;;0.40;0.40;;;25.90;89.30;;;;;;5048991;28;20228;-68
2022/06/16 10:47:54;;;;;;;1.05;0.75;;;26.10;87.90;;;;;;5050486;28;20229;-69
2022/06/16 10:50:47;;;;;;;0.40;0.40;;;25.60;88.40;;;;;;5050875;28;20228;-67
2022/06/16 10:53:40;;;;;;;0.50;0.50;;;25.40;89.20;;;;;;5050528;28;20221;-67
2022/06/16 10:56:29;;;;;;;0.50;0.50;;;25.60;89.70;;;;;;5050459;28;20194;-67
2022/06/16 10:59:21;;;;;;;0.55;0.55;;;25.50;89.50;;;;;;5051443;28;20671;-68
2022/06/16 11:02:20;;;;;;;0.50;0.50;;;25.00;90.00;;;;;;5051090;28;20201;-68
2022/06/16 11:05:14;;;;;;;1.85;1.75;;;24.60;90.90;;;;;;5052470;28;20212;-69
2022/06/16 11:08:08;;;;;;;2.35;1.25;;;24.40;90.90;;;;;;5051459;28;20213;-69
2022/06/16 11:11:20;;;;;;;1.10;1.10;;;24.10;91.20;;;;;;5049665;28;20207;-68
2022/06/16 11:14:16;;;;;;;0.50;0.50;;;23.80;91.40;;;;;;5047357;28;20229;-69
2022/06/16 11:17:10;;;;;;;0.40;0.40;;;23.70;91.50;;;;;;5050536;28;20193;-70
2022/06/16 11:20:01;;;;;;;0.40;0.40;;;23.50;91.80;;;;;;5050937;28;20208;-69
2022/06/16 11:22:52;;;;;;;0.70;0.68;;;23.60;91.60;;;;;;5049133;28;20205;-69
2022/06/16 11:25:43;;;;;;;0.88;0.88;;;23.50;90.80;;;;;;5051260;28;20205;-68
2022/06/16 11:28:32;;;;;;;0.70;0.70;;;23.40;91.10;;;;;;5031533;28;20225;-68
2022/06/16 11:31:22;;;;;;;0.93;0.93;;;23.50;90.90;;;;;;5027960;28;20560;-68
2022/06/16 11:34:18;;;;;;;0.50;0.50;;;23.30;90.60;;;;;;5031897;28;20221;-67
2022/06/16 11:37:53;;;;;;;0.40;0.40;;;23.10;90.60;;;;;;5040196;28;20197;-67
2022/06/16 11:40:48;;;;;;;1.30;1.20;;;23.10;91.00;;;;;;4970982;28;20204;-67
2022/06/16 11:44:01;;;;;;;0.50;0.50;;;23.10;90.00;;;;;;4971401;28;20270;-69
2022/06/16 11:46:55;;;;;;;0.80;0.80;;;22.80;90.30;;;;;;5047946;28;20221;-68
2022/06/16 11:49:50;;;;;;;0.93;0.93;;;22.90;90.70;;;;;;5046385;28;20261;-69
2022/06/16 11:52:48;;;;;;;1.25;1.13;;;23.00;90.70;;;;;;5046535;28;20213;-69
2022/06/16 11:55:42;;;;;;;0.50;0.50;;;23.10;89.30;;;;;;5049019;28;20581;-68
2022/06/16 11:58:56;;;;;;;0.70;0.70;;;23.20;90.30;;;;;;5052539;28;20220;-68
2022/06/16 12:01:46;;;;;;;0.40;0.40;;;23.30;89.70;;;;;;5062097;28;20205;-69
2022/06/16 12:04:53;;;;;;;0.90;0.90;;;23.30;89.90;;;;;;5052617;28;20221;-69
2022/06/16 12:08:06;;;;;;;1.10;1.10;;;23.30;88.20;;;;;;5054333;28;20224;-67
2022/06/16 12:11:00;;;;;;;0.93;0.93;;;23.30;87.40;;;;;;5050532;28;20194;-67
2022/06/16 12:13:56;;;;;;;0.80;0.80;;;23.30;87.70;;;;;;5041837;28;20269;-66
2022/06/16 12:16:53;;;;;;;0.40;0.40;;;23.40;89.20;;;;;;5052983;28;20200;-66
2022/06/16 12:19:50;;;;;;;0.50;0.50;;;23.60;87.70;;;;;;5053035;28;20193;-67
2022/06/16 12:22:47;;;;;;;0.50;0.50;;;23.80;88.00;;;;;;5066671;28;20193;-68
2022/06/16 12:25:40;;;;;;;0.73;0.55;;;23.80;86.80;;;;;;5053233;28;20284;-67
2022/06/16 12:28:37;;;;;;;1.73;0.80;;;23.90;87.10;;;;;;5060704;28;20221;-69
2022/06/16 12:31:34;;;;;;;0.50;0.50;;;24.00;87.50;;;;;;5059757;28;20205;-67
2022/06/16 12:34:28;;;;;;;1.40;1.27;;;24.00;88.20;;;;;;5059047;28;20635;-67
2022/06/16 12:37:20;;;;;;;0.50;0.50;;;24.10;87.60;;;;;;5056777;28;20246;-67
2022/06/16 12:40:16;;;;;;;0.60;0.60;;;24.20;87.80;;;;;;5053163;28;20666;-68
2022/06/16 12:43:11;;;;;;;0.55;0.55;;;25.30;86.10;;;;;;5054454;28;20217;-66
2022/06/16 12:46:03;;;;;;;1.02;0.80;;;27.10;82.70;;;;;;5054275;28;20273;-66
2022/06/16 12:49:02;;;;;;;0.73;0.73;;;29.40;76.00;;;;;;5062341;28;20221;-65
2022/06/16 12:51:55;;;;;;;0.50;0.50;;;31.00;71.60;;;;;;5064737;28;20201;-66
2022/06/16 12:54:48;;;;;;;0.40;0.40;;;32.50;66.70;;;;;;5073128;28;20233;-67
2022/06/16 12:57:41;;;;;;;1.10;1.10;;;33.80;62.80;;;;;;5073200;28;20206;-66
2022/06/16 13:00:33;;;;;;;0.60;0.60;;;35.00;57.80;;;;;;5072751;28;20324;-66
2022/06/16 13:03:27;;;;;;;0.68;0.68;;;34.40;56.60;;;;;;5072882;28;20228;-67
2022/06/16 13:06:19;;;;;;;0.40;0.40;;;34.40;55.00;;;;;;5064991;28;20197;-66
2022/06/16 13:09:12;;;;;;;0.50;0.50;;;34.90;54.70;;;;;;5050490;28;20714;-67
2022/06/16 13:12:04;;;;;;;0.60;0.60;;;35.40;53.10;;;;;;5051283;28;20205;-67
2022/06/16 13:14:58;;;;;;;0.40;0.40;;;35.20;52.10;;;;;;5051360;28;20244;-68
2022/06/16 13:17:50;;;;;;;0.75;0.63;;;35.80;51.80;;;;;;5050145;28;20655;-69
2022/06/16 13:20:41;;;;;;;0.50;0.50;;;36.00;50.80;;;;;;5053441;28;20267;-68
2022/06/16 13:23:33;;;;;;;0.50;0.50;;;36.20;50.20;;;;;;5052876;28;20221;-68
2022/06/16 13:26:25;;;;;;;0.40;0.40;;;37.30;49.00;;;;;;5052339;28;20201;-68
2022/06/16 13:29:19;;;;;;;0.60;0.60;;;37.50;47.80;;;;;;5051199;28;20243;-68
2022/06/16 13:32:22;;;;;;;0.50;0.50;;;38.00;47.40;;;;;;5033918;28;20201;-68
2022/06/16 13:35:45;;;;;;;1.15;0.70;;;38.10;46.70;;;;;;5052993;28;20201;-67
2022/06/16 13:38:45;;;;;;;0.50;0.50;;;35.50;48.40;;;;;;5051434;28;20197;-70
2022/06/16 13:41:42;;;;;;;0.40;0.40;;;34.80;49.20;;;;;;5052838;28;20205;-67
2022/06/16 13:44:30;;;;;;;0.40;0.40;;;36.90;47.10;;;;;;5053979;28;20217;-67
2022/06/16 13:47:22;;;;;;;7.72;3.30;;;38.30;45.50;;;;;;5052735;28;20201;-67
2022/06/16 13:50:18;;;;;;;0.57;0.55;;;38.60;43.90;;;;;;5051891;28;20205;-69
2022/06/16 13:53:07;;;;;;;0.50;0.50;;;37.90;44.20;;;;;;5054179;28;20223;-68
2022/06/16 13:56:00;;;;;;;0.40;0.40;;;36.90;44.80;;;;;;5064273;28;20250;-68
2022/06/16 13:59:09;;;;;;;0.90;0.90;;;37.70;44.90;;;;;;5060859;28;20201;-67
2022/06/16 14:02:08;;;;;;;0.40;0.40;;;38.90;43.90;;;;;;5066510;28;20228;-67
2022/06/16 14:05:04;;;;;;;0.40;0.40;;;38.30;44.90;;;;;;5059678;28;20236;-67
2022/06/16 14:07:58;;;;;;;0.40;0.40;;;36.50;44.70;;;;;;5060946;28;20959;-66
2022/06/16 14:10:49;;;;;;;0.47;0.47;;;34.40;47.10;;;;;;5063530;28;20255;-67
2022/06/16 14:13:41;;;;;;;0.60;0.60;;;34.00;47.90;;;;;;5053477;28;20243;-67
2022/06/16 14:16:35;;;;;;;0.40;0.40;;;36.20;46.50;;;;;;5062781;28;20271;-67
2022/06/16 14:19:29;;;;;;;0.80;0.80;;;39.00;44.20;;;;;;5061846;28;20220;-67
2022/06/16 14:22:19;;;;;;;0.40;0.40;;;38.60;42.90;;;;;;5063264;28;20193;-67
2022/06/16 14:25:14;;;;;;;0.40;0.40;;;38.80;44.10;;;;;;5051213;28;20218;-68
2022/06/16 14:28:05;;;;;;;1.25;0.85;;;40.70;42.90;;;;;;5052295;28;20221;-68
2022/06/16 14:30:58;;;;;;;0.60;0.60;;;41.90;39.50;;;;;;5051684;28;20266;-68
2022/06/16 14:33:50;;;;;;;0.90;0.90;;;38.50;41.10;;;;;;5052935;28;20226;-68
2022/06/16 14:36:43;;;;;;;0.50;0.50;;;37.00;42.90;;;;;;5050215;28;20212;-68
2022/06/16 14:39:37;;;;;;;0.40;0.40;;;36.90;43.50;;;;;;5049158;28;20720;-68
2022/06/16 14:42:30;;;;;;;0.90;0.90;;;35.90;44.50;;;;;;5049334;28;20216;-68
2022/06/16 14:45:30;;;;;;;0.77;0.77;;;36.10;43.50;;;;;;5050732;28;20294;-68
2022/06/16 14:48:26;;;;;;;0.50;0.50;;;34.60;44.50;;;;;;5060442;28;20705;-67
2022/06/16 14:51:17;;;;;;;0.40;0.40;;;34.70;45.70;;;;;;5055554;28;20668;-67
2022/06/16 14:54:10;;;;;;;0.50;0.50;;;37.10;43.80;;;;;;5051330;28;20570;-68
2022/06/16 14:57:06;;;;;;;0.50;0.50;;;40.00;41.10;;;;;;5051207;28;20205;-68
2022/06/16 14:59:56;;;;;;;0.50;0.50;;;41.00;39.40;;;;;;5051229;28;20198;-68
2022/06/16 15:02:45;;;;;;;0.40;0.40;;;41.50;38.90;;;;;;5051234;28;20287;-69
2022/06/16 15:05:37;;;;;;;0.50;0.50;;;40.40;38.80;;;;;;5051273;28;20235;-68
2022/06/16 15:08:28;;;;;;;0.50;0.50;;;39.70;39.70;;;;;;5051278;28;20697;-67
2022/06/16 15:11:20;;;;;;;0.57;0.57;;;39.90;39.50;;;;;;5058007;28;20266;-67
2022/06/16 15:14:12;;;;;;;0.60;0.60;;;41.40;38.30;;;;;;5059190;28;20229;-69
2022/06/16 15:20:16;;;;;;;1.13;1.10;;;40.20;39.00;;;;;;5068367;28;20200;-67
2022/06/16 15:23:09;;;;;;;0.50;0.50;;;40.70;37.80;;;;;;5068760;28;20225;-68